createdAt,value
2016-05-17T00:00:52.156Z,0
2016-05-17T00:01:37.987Z,0
2016-05-17T00:02:38.006Z,0
2016-05-17T00:04:38.058Z,0
2016-05-17T00:05:37.919Z,0
2016-05-17T00:06:38.125Z,0
2016-05-17T00:07:52.300Z,0
2016-05-17T00:08:38.146Z,0
2016-05-17T00:09:38.164Z,0
2016-05-17T00:10:38.183Z,0
2016-05-17T00:11:38.217Z,0
2016-05-17T00:12:52.252Z,0
2016-05-17T00:13:38.254Z,0
2016-05-17T00:14:52.460Z,0
2016-05-17T00:15:38.290Z,0
2016-05-17T00:16:38.308Z,0
2016-05-17T00:17:38.327Z,0
2016-05-17T00:18:38.345Z,0
2016-05-17T00:19:52.396Z,0
2016-05-17T00:20:38.398Z,0
2016-05-17T00:21:38.619Z,0
2016-05-17T00:22:38.279Z,0
2016-05-17T00:23:38.468Z,0
2016-05-17T00:24:38.315Z,0
2016-05-17T00:25:38.348Z,0
2016-05-17T00:26:38.539Z,0
2016-05-17T00:27:38.542Z,0
2016-05-17T00:28:38.591Z,0
2016-05-17T00:29:52.765Z,0
2016-05-17T00:30:38.456Z,0
2016-05-17T00:31:38.630Z,0
2016-05-17T00:32:38.493Z,0
2016-05-17T00:33:38.511Z,0
2016-05-17T00:34:38.685Z,0
2016-05-17T00:35:52.875Z,0
2016-05-17T00:37:38.756Z,0
2016-05-17T00:38:38.775Z,0
2016-05-17T00:39:38.808Z,0
2016-05-17T00:40:38.811Z,0
2016-05-17T00:42:38.722Z,0
2016-05-17T00:44:38.900Z,0
2016-05-17T00:45:38.856Z,0
2016-05-17T00:46:38.780Z,0
2016-05-17T00:47:53.158Z,0
2016-05-17T00:48:38.974Z,0
2016-05-17T00:49:39.007Z,0
2016-05-17T00:50:53.196Z,0
2016-05-17T00:51:53.293Z,0
2016-05-17T00:52:39.062Z,0
2016-05-17T00:53:52.971Z,0
2016-05-17T00:54:39.098Z,0
2016-05-17T00:55:38.820Z,0
2016-05-17T00:56:39.151Z,0
2016-05-17T00:57:53.356Z,0
2016-05-17T00:58:53.390Z,0
2016-05-17T00:59:39.206Z,0
2016-05-17T01:00:39.240Z,0
2016-05-17T01:01:39.274Z,0
2016-05-17T01:02:39.292Z,0
2016-05-17T01:03:53.326Z,0
2016-05-17T01:04:39.312Z,0
2016-05-17T01:05:39.347Z,0
2016-05-17T01:06:39.099Z,0
2016-05-17T01:07:39.400Z,0
2016-05-17T01:08:53.589Z,0
2016-05-17T01:09:39.420Z,0
2016-05-17T01:10:39.439Z,0
2016-05-17T01:11:39.456Z,0
2016-05-17T01:12:39.506Z,0
2016-05-17T01:13:39.369Z,0
2016-05-17T01:14:39.527Z,0
2016-05-17T01:15:39.546Z,0
2016-05-17T01:17:07.939Z,0
2016-05-17T01:17:39.286Z,0
2016-05-17T01:18:39.304Z,0
2016-05-17T01:19:39.478Z,0
2016-05-17T01:20:39.497Z,0
2016-05-17T01:21:54.140Z,0
2016-05-17T01:22:53.721Z,0
2016-05-17T01:23:39.567Z,0
2016-05-17T01:24:53.616Z,0
2016-05-17T01:25:39.604Z,0
2016-05-17T01:26:39.622Z,0
2016-05-17T01:27:39.796Z,0
2016-05-17T01:28:39.674Z,0
2016-05-17T01:29:39.848Z,0
2016-05-17T01:30:39.867Z,0
2016-05-17T01:31:39.729Z,0
2016-05-17T01:32:39.778Z,0
2016-05-17T01:33:39.782Z,0
2016-05-17T01:35:39.662Z,0
2016-05-17T01:36:39.540Z,0
2016-05-17T01:37:40.011Z,0
2016-05-17T01:38:54.076Z,0
2016-05-17T01:39:40.047Z,0
2016-05-17T01:40:40.081Z,0
2016-05-17T01:41:40.100Z,0
2016-05-17T01:42:54.134Z,0
2016-05-17T01:44:08.355Z,0
2016-05-17T01:44:40.170Z,0
2016-05-17T01:45:40.188Z,0
2016-05-17T01:47:08.566Z,0
2016-05-17T01:47:40.225Z,0
2016-05-17T01:48:54.430Z,0
2016-05-17T01:49:40.263Z,0
2016-05-17T01:50:40.124Z,0
2016-05-17T01:52:40.161Z,0
2016-05-17T01:53:40.366Z,0
2016-05-17T01:54:54.572Z,0
2016-05-17T01:55:40.387Z,0
2016-05-17T01:56:40.406Z,0
2016-05-17T01:57:40.268Z,0
2016-05-17T01:58:40.458Z,0
2016-05-17T01:59:40.476Z,0
2016-05-17T02:00:40.495Z,0
2016-05-17T02:01:40.513Z,0
2016-05-17T02:02:40.390Z,0
2016-05-17T02:04:08.925Z,0
2016-05-17T02:04:40.427Z,0
2016-05-17T02:05:54.790Z,0
2016-05-17T02:06:40.667Z,0
2016-05-17T02:07:40.482Z,0
2016-05-17T02:08:40.657Z,0
2016-05-17T02:09:40.675Z,0
2016-05-17T02:10:54.881Z,0
2016-05-17T02:11:40.572Z,0
2016-05-17T02:12:40.589Z,0
2016-05-17T02:13:54.795Z,0
2016-05-17T02:14:40.798Z,0
2016-05-17T02:15:40.800Z,0
2016-05-17T02:16:40.678Z,0
2016-05-17T02:17:55.041Z,0
2016-05-17T02:18:40.871Z,0
2016-05-17T02:19:40.734Z,0
2016-05-17T02:20:40.907Z,0
2016-05-17T02:22:55.132Z,0
2016-05-17T02:23:40.979Z,0
2016-05-17T02:24:40.825Z,0
2016-05-17T02:25:55.187Z,0
2016-05-17T02:27:41.052Z,0
2016-05-17T02:28:40.773Z,0
2016-05-17T02:29:41.104Z,0
2016-05-17T02:30:40.966Z,0
2016-05-17T02:31:41.126Z,0
2016-05-17T02:32:40.846Z,0
2016-05-17T02:33:40.865Z,0
2016-05-17T02:34:41.086Z,0
2016-05-17T02:35:41.417Z,0
2016-05-17T02:36:41.606Z,0
2016-05-17T02:37:41.173Z,0
2016-05-17T02:38:55.534Z,0
2016-05-17T02:39:55.178Z,0
2016-05-17T02:40:41.087Z,0
2016-05-17T02:41:41.183Z,0
2016-05-17T02:42:41.373Z,0
2016-05-17T02:43:41.235Z,0
2016-05-17T02:44:41.269Z,0
2016-05-17T02:45:41.256Z,0
2016-05-17T02:46:40.994Z,0
2016-05-17T02:47:55.669Z,0
2016-05-17T02:48:55.514Z,0
2016-05-17T02:49:41.501Z,0
2016-05-17T02:50:55.566Z,0
2016-05-17T02:51:41.836Z,0
2016-05-17T02:52:41.416Z,0
2016-05-17T02:53:41.450Z,0
2016-05-17T02:54:41.608Z,0
2016-05-17T02:55:41.643Z,0
2016-05-17T02:56:41.661Z,0
2016-05-17T02:57:55.866Z,0
2016-05-17T02:58:41.698Z,0
2016-05-17T02:59:41.732Z,0
2016-05-17T03:01:41.752Z,0
2016-05-17T03:02:41.787Z,0
2016-05-17T03:03:41.820Z,0
2016-05-17T03:04:41.823Z,0
2016-05-17T03:05:41.842Z,0
2016-05-17T03:07:41.878Z,0
2016-05-17T03:08:41.756Z,0
2016-05-17T03:09:41.930Z,0
2016-05-17T03:10:41.948Z,0
2016-05-17T03:11:56.154Z,0
2016-05-17T03:12:41.986Z,5
2016-05-17T03:13:55.878Z,5
2016-05-17T03:14:41.725Z,5
2016-05-17T03:15:42.055Z,5
2016-05-17T03:16:42.075Z,5
2016-05-17T03:17:56.280Z,5
2016-05-17T03:18:42.111Z,5
2016-05-17T03:19:41.989Z,10
2016-05-17T03:20:41.850Z,10
2016-05-17T03:21:42.415Z,10
2016-05-17T03:22:42.199Z,10
2016-05-17T03:23:42.249Z,10
2016-05-17T03:24:42.096Z,10
2016-05-17T03:25:41.645Z,10
2016-05-17T03:26:42.351Z,5
2016-05-17T03:27:42.307Z,5
2016-05-17T03:29:56.671Z,5
2016-05-17T03:30:42.205Z,5
2016-05-17T03:31:42.379Z,5
2016-05-17T03:32:56.586Z,10
2016-05-17T03:33:42.261Z,10
2016-05-17T03:34:42.295Z,10
2016-05-17T03:35:42.313Z,10
2016-05-17T03:37:56.693Z,10
2016-05-17T03:38:42.523Z,10
2016-05-17T03:39:42.559Z,15
2016-05-17T03:40:56.764Z,15
2016-05-17T03:41:42.595Z,15
2016-05-17T03:42:42.628Z,15
2016-05-17T03:43:42.647Z,15
2016-05-17T03:44:42.509Z,15
2016-05-17T03:45:56.855Z,15
2016-05-17T03:46:42.545Z,15
2016-05-17T03:48:42.583Z,15
2016-05-17T03:49:56.944Z,15
2016-05-17T03:50:42.790Z,15
2016-05-17T03:51:42.653Z,15
2016-05-17T03:52:42.811Z,15
2016-05-17T03:53:42.846Z,15
2016-05-17T03:54:57.051Z,15
2016-05-17T03:55:42.882Z,15
2016-05-17T03:56:42.885Z,10
2016-05-17T03:57:42.778Z,10
2016-05-17T03:58:42.937Z,10
2016-05-17T03:59:42.971Z,15
2016-05-17T04:00:57.161Z,15
2016-05-17T04:01:42.710Z,15
2016-05-17T04:03:42.887Z,15
2016-05-17T04:04:43.063Z,15
2016-05-17T04:05:43.082Z,15
2016-05-17T04:06:43.240Z,15
2016-05-17T04:07:43.134Z,15
2016-05-17T04:08:57.182Z,15
2016-05-17T04:09:43.029Z,15
2016-05-17T04:10:43.203Z,15
2016-05-17T04:11:57.394Z,15
2016-05-17T04:12:43.068Z,15
2016-05-17T04:13:42.946Z,15
2016-05-17T04:14:42.980Z,20
2016-05-17T04:15:43.295Z,20
2016-05-17T04:16:43.017Z,25
2016-05-17T04:17:43.050Z,25
2016-05-17T04:18:43.366Z,25
2016-05-17T04:19:43.211Z,25
2016-05-17T04:20:43.231Z,25
2016-05-17T04:21:43.828Z,30
2016-05-17T04:22:43.283Z,30
2016-05-17T04:23:43.473Z,35
2016-05-17T04:24:43.475Z,35
2016-05-17T04:26:11.869Z,35
2016-05-17T04:26:43.527Z,35
2016-05-17T04:27:43.233Z,35
2016-05-17T04:28:43.408Z,35
2016-05-17T04:29:43.583Z,35
2016-05-17T04:30:43.445Z,35
2016-05-17T04:31:43.479Z,35
2016-05-17T04:32:57.826Z,35
2016-05-17T04:34:43.534Z,35
2016-05-17T04:35:43.551Z,40
2016-05-17T04:36:43.430Z,45
2016-05-17T04:37:43.621Z,45
2016-05-17T04:38:43.779Z,50
2016-05-17T04:39:43.798Z,50
2016-05-17T04:40:58.003Z,45
2016-05-17T04:41:43.365Z,40
2016-05-17T04:42:43.867Z,45
2016-05-17T04:43:58.073Z,50
2016-05-17T04:45:43.907Z,45
2016-05-17T04:47:43.959Z,45
2016-05-17T04:48:58.165Z,45
2016-05-17T04:49:43.855Z,40
2016-05-17T04:50:44.030Z,40
2016-05-17T04:51:44.391Z,45
2016-05-17T04:52:44.083Z,55
2016-05-17T04:53:58.117Z,55
2016-05-17T04:54:58.291Z,55
2016-05-17T04:55:44.153Z,50
2016-05-17T04:56:44.155Z,50
2016-05-17T04:57:58.221Z,50
2016-05-17T04:58:44.036Z,50
2016-05-17T04:59:44.054Z,50
2016-05-17T05:00:44.244Z,45
2016-05-17T05:01:44.263Z,40
2016-05-17T05:02:44.297Z,35
2016-05-17T05:03:44.299Z,40
2016-05-17T05:04:58.505Z,40
2016-05-17T05:05:44.195Z,45
2016-05-17T05:06:58.901Z,55
2016-05-17T05:07:44.387Z,60
2016-05-17T05:10:44.507Z,60
2016-05-17T05:11:44.444Z,60
2016-05-17T05:12:58.833Z,55
2016-05-17T05:13:44.550Z,50
2016-05-17T05:14:44.739Z,50
2016-05-17T05:15:44.788Z,60
2016-05-17T05:16:44.666Z,65
2016-05-17T05:17:44.871Z,65
2016-05-17T05:18:44.593Z,65
2016-05-17T05:19:44.934Z,65
2016-05-17T05:20:59.130Z,65
2016-05-17T05:21:44.669Z,70
2016-05-17T05:22:45.005Z,65
2016-05-17T05:23:59.215Z,60
2016-05-17T05:24:44.925Z,55
2016-05-17T05:26:59.279Z,60
2016-05-17T05:27:44.970Z,60
2016-05-17T05:28:45.147Z,55
2016-05-17T05:30:13.542Z,45
2016-05-17T05:30:45.045Z,45
2016-05-17T05:31:45.220Z,45
2016-05-17T05:32:45.239Z,50
2016-05-17T05:33:45.275Z,55
2016-05-17T05:34:45.277Z,65
2016-05-17T05:35:59.468Z,65
2016-05-17T05:36:59.206Z,55
2016-05-17T05:37:44.880Z,60
2016-05-17T05:38:45.040Z,70
2016-05-17T05:39:45.230Z,80
2016-05-17T05:40:45.404Z,85
2016-05-17T05:41:45.423Z,95
2016-05-17T05:42:59.629Z,105
2016-05-17T05:43:45.460Z,110
2016-05-17T05:44:45.478Z,110
2016-05-17T05:45:45.512Z,110
2016-05-17T05:46:45.530Z,110
2016-05-17T05:47:45.392Z,115
2016-05-17T05:48:45.568Z,125
2016-05-17T05:49:45.334Z,135
2016-05-17T05:50:45.494Z,145
2016-05-17T05:51:45.340Z,150
2016-05-17T05:52:45.656Z,155
2016-05-17T05:53:45.690Z,155
2016-05-17T05:54:59.724Z,160
2016-05-17T05:55:45.726Z,160
2016-05-17T05:56:45.776Z,165
2016-05-17T05:57:45.779Z,170
2016-05-17T05:58:59.969Z,155
2016-05-17T05:59:45.659Z,170
2016-05-17T06:00:45.834Z,185
2016-05-17T06:01:45.539Z,205
2016-05-17T06:02:45.870Z,220
2016-05-17T06:03:45.733Z,195
2016-05-17T06:04:45.750Z,220
2016-05-17T06:05:45.925Z,275
2016-05-17T06:06:45.833Z,295
2016-05-17T06:08:00.165Z,285
2016-05-17T06:08:45.996Z,275
2016-05-17T06:09:46.014Z,170
2016-05-17T06:10:46.048Z,130
2016-05-17T06:11:46.066Z,115
2016-05-17T06:12:45.928Z,115
2016-05-17T06:14:00.306Z,145
2016-05-17T06:14:45.980Z,130
2016-05-17T06:15:46.015Z,125
2016-05-17T06:17:00.923Z,165
2016-05-17T06:17:46.192Z,170
2016-05-17T06:18:46.210Z,175
2016-05-17T06:20:46.247Z,165
2016-05-17T06:21:46.843Z,140
2016-05-17T06:22:46.298Z,130
2016-05-17T06:24:00.520Z,125
2016-05-17T06:24:46.414Z,125
2016-05-17T06:25:46.370Z,120
2016-05-17T06:26:46.388Z,120
2016-05-17T06:28:00.438Z,125
2016-05-17T06:28:46.424Z,130
2016-05-17T06:29:46.459Z,135
2016-05-17T06:30:46.320Z,140
2016-05-17T06:31:46.495Z,140
2016-05-17T06:32:46.529Z,140
2016-05-17T06:34:00.720Z,145
2016-05-17T06:34:46.566Z,150
2016-05-17T06:35:46.584Z,160
2016-05-17T06:37:00.759Z,170
2016-05-17T06:38:00.808Z,175
2016-05-17T06:38:46.655Z,185
2016-05-17T06:40:00.844Z,180
2016-05-17T06:41:46.085Z,175
2016-05-17T06:42:46.728Z,175
2016-05-17T06:44:00.949Z,170
2016-05-17T06:45:15.140Z,145
2016-05-17T06:45:46.643Z,130
2016-05-17T06:47:46.835Z,115
2016-05-17T06:48:46.868Z,110
2016-05-17T06:49:46.887Z,95
2016-05-17T06:50:46.906Z,105
2016-05-17T06:51:47.143Z,95
2016-05-17T06:52:46.957Z,120
2016-05-17T06:54:46.979Z,130
2016-05-17T06:56:01.200Z,155
2016-05-17T06:56:47.031Z,170
2016-05-17T06:57:46.908Z,170
2016-05-17T06:58:46.912Z,180
2016-05-17T06:59:47.101Z,185
2016-05-17T07:01:01.323Z,185
2016-05-17T07:01:46.825Z,185
2016-05-17T07:03:15.375Z,185
2016-05-17T07:05:01.396Z,185
2016-05-17T07:05:47.242Z,185
2016-05-17T07:06:47.136Z,175
2016-05-17T07:07:47.280Z,170
2016-05-17T07:08:47.297Z,160
2016-05-17T07:09:47.316Z,140
2016-05-17T07:11:01.537Z,135
2016-05-17T07:11:47.227Z,135
2016-05-17T07:12:47.386Z,135
2016-05-17T07:13:47.421Z,130
2016-05-17T07:16:01.644Z,130
2016-05-17T07:16:47.319Z,140
2016-05-17T07:17:47.354Z,155
2016-05-17T07:18:47.371Z,190
2016-05-17T07:20:47.564Z,250
2016-05-17T07:21:47.582Z,265
2016-05-17T07:23:47.478Z,295
2016-05-17T07:24:47.654Z,290
2016-05-17T07:27:01.893Z,210
2016-05-17T07:27:47.568Z,200
2016-05-17T07:28:47.742Z,230
2016-05-17T07:29:47.776Z,235
2016-05-17T07:31:01.997Z,225
2016-05-17T07:32:02.031Z,260
2016-05-17T07:32:47.675Z,260
2016-05-17T07:35:02.055Z,205
2016-05-17T07:35:47.761Z,230
2016-05-17T07:36:48.030Z,290
2016-05-17T07:37:47.782Z,305
2016-05-17T07:38:47.816Z,305
2016-05-17T07:39:47.991Z,305
2016-05-17T07:40:47.899Z,245
2016-05-17T07:41:48.043Z,240
2016-05-17T07:43:02.264Z,215
2016-05-17T07:43:47.954Z,190
2016-05-17T07:44:48.113Z,195
2016-05-17T07:45:47.818Z,235
2016-05-17T07:46:48.182Z,275
2016-05-17T07:47:48.028Z,310
2016-05-17T07:48:48.062Z,330
2016-05-17T07:49:48.440Z,315
2016-05-17T07:50:48.254Z,275
2016-05-17T07:51:48.320Z,230
2016-05-17T07:52:48.307Z,235
2016-05-17T07:53:48.168Z,255
2016-05-17T07:54:48.343Z,265
2016-05-17T07:55:48.220Z,240
2016-05-17T07:56:48.396Z,240
2016-05-17T07:57:48.398Z,245
2016-05-17T07:59:02.589Z,265
2016-05-17T07:59:48.295Z,285
2016-05-17T08:00:48.453Z,265
2016-05-17T08:01:48.331Z,230
2016-05-17T08:02:48.537Z,245
2016-05-17T08:03:48.539Z,280
2016-05-17T08:04:48.573Z,305
2016-05-17T08:05:48.591Z,305
2016-05-17T08:06:48.486Z,335
2016-05-17T08:08:02.816Z,405
2016-05-17T08:09:02.708Z,385
2016-05-17T08:09:48.540Z,355
2016-05-17T08:10:48.714Z,325
2016-05-17T08:11:48.717Z,350
2016-05-17T08:12:48.736Z,395
2016-05-17T08:15:02.975Z,305
2016-05-17T08:15:48.805Z,260
2016-05-17T08:16:48.840Z,275
2016-05-17T08:18:02.749Z,255
2016-05-17T08:18:48.876Z,235
2016-05-17T08:19:48.598Z,225
2016-05-17T08:20:48.632Z,230
2016-05-17T08:21:49.040Z,285
2016-05-17T08:22:48.982Z,315
2016-05-17T08:23:48.999Z,320
2016-05-17T08:24:48.705Z,290
2016-05-17T08:26:03.239Z,285
2016-05-17T08:26:48.773Z,345
2016-05-17T08:27:49.088Z,360
2016-05-17T08:28:48.965Z,310
2016-05-17T08:29:49.140Z,275
2016-05-17T08:31:03.393Z,265
2016-05-17T08:31:49.178Z,255
2016-05-17T08:32:49.055Z,210
2016-05-17T08:33:48.933Z,165
2016-05-17T08:35:49.126Z,125
2016-05-17T08:36:49.316Z,120
2016-05-17T08:37:49.334Z,115
2016-05-17T08:39:03.525Z,120
2016-05-17T08:39:49.370Z,125
2016-05-17T08:40:49.405Z,125
2016-05-17T08:41:49.423Z,125
2016-05-17T08:42:49.550Z,115
2016-05-17T08:43:49.475Z,105
2016-05-17T08:44:49.508Z,95
2016-05-17T08:46:03.699Z,105
2016-05-17T08:46:49.546Z,125
2016-05-17T08:47:49.408Z,160
2016-05-17T08:48:49.598Z,170
2016-05-17T08:50:03.788Z,165
2016-05-17T08:50:49.634Z,175
2016-05-17T08:52:03.934Z,195
2016-05-17T08:52:49.515Z,215
2016-05-17T08:53:49.393Z,330
2016-05-17T08:54:49.552Z,310
2016-05-17T08:55:49.585Z,315
2016-05-17T08:57:49.638Z,335
2016-05-17T08:58:49.656Z,320
2016-05-17T08:59:49.690Z,300
2016-05-17T09:00:49.849Z,295
2016-05-17T09:01:49.742Z,280
2016-05-17T09:02:49.901Z,270
2016-05-17T09:03:49.763Z,275
2016-05-17T09:04:49.641Z,310
2016-05-17T09:06:04.175Z,270
2016-05-17T09:06:50.708Z,245
2016-05-17T09:07:49.867Z,225
2016-05-17T09:09:04.230Z,205
2016-05-17T09:09:50.061Z,185
2016-05-17T09:11:04.111Z,155
2016-05-17T09:13:50.149Z,110
2016-05-17T09:14:49.731Z,100
2016-05-17T09:15:50.202Z,85
2016-05-17T09:16:50.220Z,75
2016-05-17T09:18:04.441Z,65
2016-05-17T09:18:50.288Z,65
2016-05-17T09:19:50.306Z,60
2016-05-17T09:20:50.184Z,60
2016-05-17T09:21:50.905Z,70
2016-05-17T09:23:04.690Z,75
2016-05-17T09:24:04.568Z,75
2016-05-17T09:24:50.257Z,75
2016-05-17T09:26:50.451Z,75
2016-05-17T09:27:50.312Z,75
2016-05-17T09:29:04.690Z,70
2016-05-17T09:29:50.365Z,70
2016-05-17T09:31:04.586Z,80
2016-05-17T09:31:50.573Z,105
2016-05-17T09:32:50.638Z,125
2016-05-17T09:34:04.798Z,140
2016-05-17T09:34:50.331Z,155
2016-05-17T09:35:50.506Z,200
2016-05-17T09:36:50.712Z,240
2016-05-17T09:38:04.917Z,260
2016-05-17T09:38:50.733Z,225
2016-05-17T09:39:50.751Z,215
2016-05-17T09:40:50.784Z,235
2016-05-17T09:41:50.662Z,265
2016-05-17T09:42:50.837Z,280
2016-05-17T09:43:50.855Z,270
2016-05-17T09:44:50.874Z,245
2016-05-17T09:45:50.891Z,230
2016-05-17T09:46:50.754Z,255
2016-05-17T09:47:50.944Z,270
2016-05-17T09:49:04.993Z,325
2016-05-17T09:50:05.012Z,400
2016-05-17T09:50:51.015Z,440
2016-05-17T09:51:51.158Z,490
2016-05-17T09:53:05.239Z,500
2016-05-17T09:53:51.070Z,495
2016-05-17T09:55:05.275Z,495
2016-05-17T09:56:51.141Z,475
2016-05-17T09:57:51.018Z,475
2016-05-17T09:58:51.193Z,510
2016-05-17T10:00:05.398Z,495
2016-05-17T10:00:50.917Z,470
2016-05-17T10:02:51.281Z,385
2016-05-17T10:03:51.300Z,320
2016-05-17T10:04:51.318Z,280
2016-05-17T10:06:05.523Z,250
2016-05-17T10:06:51.495Z,235
2016-05-17T10:08:05.592Z,185
2016-05-17T10:08:51.267Z,155
2016-05-17T10:10:05.628Z,145
2016-05-17T10:10:51.490Z,160
2016-05-17T10:11:51.492Z,185
2016-05-17T10:12:51.512Z,180
2016-05-17T10:14:51.564Z,255
2016-05-17T10:15:51.286Z,320
2016-05-17T10:16:51.460Z,395
2016-05-17T10:19:51.686Z,560
2016-05-17T10:21:19.924Z,545
2016-05-17T10:21:51.770Z,575
2016-05-17T10:22:51.757Z,560
2016-05-17T10:24:05.822Z,545
2016-05-17T10:25:05.824Z,575
2016-05-17T10:25:51.688Z,530
2016-05-17T10:26:51.393Z,495
2016-05-17T10:28:05.910Z,450
2016-05-17T10:28:51.914Z,460
2016-05-17T10:29:51.948Z,510
2016-05-17T10:30:51.950Z,600
2016-05-17T10:31:52.001Z,540
2016-05-17T10:32:52.003Z,500
2016-05-17T10:33:52.021Z,495
2016-05-17T10:34:52.055Z,540
2016-05-17T10:35:52.073Z,520
2016-05-17T10:36:52.122Z,510
2016-05-17T10:37:51.970Z,500
2016-05-17T10:39:52.162Z,450
2016-05-17T10:40:52.181Z,455
2016-05-17T10:41:52.215Z,490
2016-05-17T10:42:52.233Z,505
2016-05-17T10:44:06.283Z,515
2016-05-17T10:45:06.457Z,485
2016-05-17T10:45:52.147Z,470
2016-05-17T10:47:06.509Z,435
2016-05-17T10:48:06.544Z,410
2016-05-17T10:48:52.389Z,410
2016-05-17T10:49:52.408Z,430
2016-05-17T10:51:52.586Z,460
2016-05-17T10:53:06.666Z,455
2016-05-17T10:54:06.528Z,485
2016-05-17T10:54:52.062Z,490
2016-05-17T10:55:52.549Z,450
2016-05-17T10:56:52.583Z,400
2016-05-17T10:57:52.601Z,345
2016-05-17T10:59:06.494Z,255
2016-05-17T10:59:52.654Z,205
2016-05-17T11:00:52.672Z,175
2016-05-17T11:01:52.721Z,140
2016-05-17T11:03:06.927Z,130
2016-05-17T11:04:52.620Z,120
2016-05-17T11:05:52.795Z,115
2016-05-17T11:06:53.047Z,115
2016-05-17T11:07:52.847Z,110
2016-05-17T11:09:06.896Z,100
2016-05-17T11:09:52.899Z,95
2016-05-17T11:11:06.948Z,90
2016-05-17T11:11:52.936Z,105
2016-05-17T11:12:52.672Z,135
2016-05-17T11:13:52.691Z,175
2016-05-17T11:14:52.881Z,205
2016-05-17T11:16:06.899Z,255
2016-05-17T11:16:53.074Z,295
2016-05-17T11:17:53.077Z,325
2016-05-17T11:19:07.283Z,350
2016-05-17T11:19:52.973Z,365
2016-05-17T11:20:52.992Z,375
2016-05-17T11:21:53.055Z,365
2016-05-17T11:22:53.043Z,365
2016-05-17T11:23:53.062Z,365
2016-05-17T11:25:07.424Z,350
2016-05-17T11:25:53.130Z,350
2016-05-17T11:26:53.289Z,365
2016-05-17T11:27:53.010Z,385
2016-05-17T11:28:53.029Z,460
2016-05-17T11:30:07.546Z,415
2016-05-17T11:30:53.237Z,420
2016-05-17T11:32:07.443Z,415
2016-05-17T11:32:53.274Z,415
2016-05-17T11:34:07.635Z,385
2016-05-17T11:34:53.341Z,380
2016-05-17T11:35:53.516Z,400
2016-05-17T11:36:54.096Z,415
2016-05-17T11:38:53.587Z,345
2016-05-17T11:39:53.604Z,360
2016-05-17T11:41:53.485Z,385
2016-05-17T11:42:53.519Z,385
2016-05-17T11:43:53.709Z,370
2016-05-17T11:44:53.571Z,345
2016-05-17T11:45:53.589Z,310
2016-05-17T11:46:53.623Z,290
2016-05-17T11:48:22.158Z,250
2016-05-17T11:48:53.816Z,235
2016-05-17T11:49:53.835Z,230
2016-05-17T11:50:53.697Z,220
2016-05-17T11:51:53.605Z,220
2016-05-17T11:53:08.093Z,240
2016-05-17T11:53:53.939Z,245
2016-05-17T11:54:53.816Z,235
2016-05-17T11:56:08.179Z,250
2016-05-17T11:56:53.854Z,290
2016-05-17T11:57:54.027Z,340
2016-05-17T11:58:54.063Z,350
2016-05-17T12:00:08.113Z,395
2016-05-17T12:01:08.285Z,430
2016-05-17T12:01:54.148Z,400
2016-05-17T12:03:08.182Z,395
2016-05-17T12:03:54.013Z,385
2016-05-17T12:04:54.203Z,360
2016-05-17T12:05:54.238Z,325
2016-05-17T12:06:54.427Z,295
2016-05-17T12:07:54.117Z,275
2016-05-17T12:08:54.292Z,240
2016-05-17T12:09:54.310Z,200
2016-05-17T12:10:54.187Z,145
2016-05-17T12:11:54.222Z,105
2016-05-17T12:12:54.397Z,80
2016-05-17T12:13:54.415Z,70
2016-05-17T12:15:08.636Z,75
2016-05-17T12:17:54.206Z,75
2016-05-17T12:19:08.709Z,80
2016-05-17T12:20:08.744Z,95
2016-05-17T12:20:54.590Z,120
2016-05-17T12:21:55.139Z,140
2016-05-17T12:22:54.486Z,150
2016-05-17T12:23:54.660Z,145
2016-05-17T12:24:54.679Z,150
2016-05-17T12:25:54.557Z,160
2016-05-17T12:26:54.731Z,170
2016-05-17T12:28:08.937Z,180
2016-05-17T12:28:54.611Z,185
2016-05-17T12:29:54.802Z,205
2016-05-17T12:30:54.696Z,210
2016-05-17T12:31:54.838Z,210
2016-05-17T12:32:54.872Z,210
2016-05-17T12:33:54.891Z,215
2016-05-17T12:34:54.612Z,220
2016-05-17T12:35:54.943Z,230
2016-05-17T12:37:09.179Z,240
2016-05-17T12:37:54.839Z,240
2016-05-17T12:38:54.998Z,240
2016-05-17T12:39:55.032Z,240
2016-05-17T12:40:54.753Z,245
2016-05-17T12:41:55.068Z,250
2016-05-17T12:42:54.931Z,260
2016-05-17T12:44:09.309Z,255
2016-05-17T12:44:55.139Z,250
2016-05-17T12:46:09.361Z,220
2016-05-17T12:47:09.379Z,205
2016-05-17T12:47:55.225Z,195
2016-05-17T12:48:55.086Z,200
2016-05-17T12:50:09.449Z,230
2016-05-17T12:50:54.999Z,235
2016-05-17T12:51:55.955Z,215
2016-05-17T12:52:55.332Z,215
2016-05-17T12:54:23.725Z,235
2016-05-17T12:54:55.385Z,240
2016-05-17T12:55:55.263Z,270
2016-05-17T12:56:55.422Z,295
2016-05-17T12:57:55.471Z,305
2016-05-17T12:58:55.473Z,290
2016-05-17T13:00:23.866Z,250
2016-05-17T13:00:55.526Z,240
2016-05-17T13:01:55.544Z,235
2016-05-17T13:02:55.563Z,240
2016-05-17T13:03:55.284Z,250
2016-05-17T13:04:55.474Z,260
2016-05-17T13:05:55.508Z,270
2016-05-17T13:06:55.792Z,275
2016-05-17T13:08:09.873Z,275
2016-05-17T13:08:55.718Z,285
2016-05-17T13:09:55.737Z,300
2016-05-17T13:10:55.771Z,305
2016-05-17T13:11:55.790Z,310
2016-05-17T13:12:55.808Z,310
2016-05-17T13:13:55.826Z,310
2016-05-17T13:14:55.860Z,310
2016-05-17T13:16:10.067Z,320
2016-05-17T13:16:55.898Z,320
2016-05-17T13:17:55.931Z,320
2016-05-17T13:18:55.792Z,320
2016-05-17T13:19:55.998Z,310
2016-05-17T13:20:56.001Z,290
2016-05-17T13:21:56.223Z,260
2016-05-17T13:23:10.241Z,270
2016-05-17T13:24:55.949Z,260
2016-05-17T13:26:10.140Z,260
2016-05-17T13:26:55.986Z,260
2016-05-17T13:27:56.020Z,250
2016-05-17T13:28:56.194Z,245
2016-05-17T13:29:56.213Z,225
2016-05-17T13:31:10.418Z,225
2016-05-17T13:31:56.265Z,220
2016-05-17T13:32:56.002Z,225
2016-05-17T13:34:10.349Z,230
2016-05-17T13:35:10.538Z,235
2016-05-17T13:35:56.354Z,240
2016-05-17T13:37:10.779Z,235
2016-05-17T13:37:56.110Z,225
2016-05-17T13:38:56.128Z,205
2016-05-17T13:39:56.459Z,185
2016-05-17T13:41:10.509Z,170
2016-05-17T13:42:10.527Z,155
2016-05-17T13:43:10.545Z,140
2016-05-17T13:43:56.563Z,130
2016-05-17T13:44:56.582Z,110
2016-05-17T13:45:56.443Z,85
2016-05-17T13:46:56.462Z,70
2016-05-17T13:48:10.824Z,55
2016-05-17T13:48:56.531Z,45
2016-05-17T13:50:10.876Z,40
2016-05-17T13:50:56.567Z,40
2016-05-17T13:51:56.616Z,40
2016-05-17T13:52:56.462Z,45
2016-05-17T13:53:56.778Z,45
2016-05-17T13:55:10.687Z,50
2016-05-17T13:55:56.674Z,55
2016-05-17T13:58:10.913Z,65
2016-05-17T13:58:56.901Z,65
2016-05-17T13:59:56.778Z,60
2016-05-17T14:00:56.968Z,55
2016-05-17T14:01:56.986Z,50
2016-05-17T14:03:11.177Z,45
2016-05-17T14:03:57.039Z,45
2016-05-17T14:04:56.885Z,50
2016-05-17T14:06:11.263Z,50
2016-05-17T14:06:57.125Z,55
2016-05-17T14:07:57.221Z,60
2016-05-17T14:08:57.412Z,65
2016-05-17T14:10:11.352Z,60
2016-05-17T14:12:11.263Z,70
2016-05-17T14:12:57.078Z,65
2016-05-17T14:14:11.300Z,75
2016-05-17T14:14:57.287Z,85
2016-05-17T14:15:57.336Z,90
2016-05-17T14:16:57.238Z,110
2016-05-17T14:17:57.298Z,120
2016-05-17T14:19:11.560Z,115
2016-05-17T14:19:57.604Z,110
2016-05-17T14:20:57.363Z,110
2016-05-17T14:21:57.693Z,120
2016-05-17T14:22:58.649Z,140
2016-05-17T14:23:57.448Z,160
2016-05-17T14:24:57.809Z,175
2016-05-17T14:26:12.007Z,190
2016-05-17T14:26:57.859Z,195
2016-05-17T14:27:57.586Z,195
2016-05-17T14:28:57.906Z,195
2016-05-17T14:30:12.117Z,195
2016-05-17T14:31:12.155Z,185
2016-05-17T14:31:57.988Z,185
2016-05-17T14:32:58.023Z,185
2016-05-17T14:33:58.058Z,180
2016-05-17T14:35:11.938Z,185
2016-05-17T14:35:57.786Z,180
2016-05-17T14:36:57.851Z,165
2016-05-17T14:37:58.542Z,160
2016-05-17T14:38:58.170Z,160
2016-05-17T14:39:58.189Z,165
2016-05-17T14:40:58.223Z,160
2016-05-17T14:41:58.242Z,155
2016-05-17T14:42:58.276Z,160
2016-05-17T14:44:12.467Z,165
2016-05-17T14:44:58.001Z,165
2016-05-17T14:45:58.332Z,170
2016-05-17T14:46:58.194Z,165
2016-05-17T14:47:58.385Z,160
2016-05-17T14:48:58.246Z,155
2016-05-17T14:49:58.421Z,150
2016-05-17T14:51:12.627Z,150
2016-05-17T14:51:58.036Z,150
2016-05-17T14:53:58.353Z,160
2016-05-17T14:54:58.543Z,165
2016-05-17T14:56:12.749Z,175
2016-05-17T14:57:12.768Z,180
2016-05-17T14:58:58.648Z,185